Upper Lisle, New York
Current Conditions -  °F | °C
As of 10:53 PM on Wednesday 28 Jan 2015 (Local Time) from KBGM Reporting Station
Clear Clear  
Wind Chill: -16°   Ceiling: Unl
Heat Index: -11°   Visibility: 10mi
Dew Point: -15°   Wind: 6mph
Humidity: 71%   Direction: 300°WNW
Pressure: 30.22"   Gusts: NA
Location:  42.3636°N, 75.9252°W
Report Text: KBGM 290353Z 30005KT 10SM CLR M11/M15 A3022 RMK AO2 SLP267 T11061150
Loading
Personal Weather Stations






























Interactive Weather Map New forecast layout! Learn more

10-Day Weather Forecast

Advertisements
Track Severe Weather on mobile